Paulistana II — 00 — position and weather

sailwx.info

Track history (hours):
 
Tides and Currents Weather Stations Pressure Air Temp Water Temp Dewpoint Dewpoint Depression Visibility Wind Speed Wind Dir Waves Ship Positions

Paulistana II

Last reported at 2014-Oct-23 03:22 UTC. Time now 2014-Oct-23 03:48 UTC.
Position N 23°03' E 113°21'.

Length 6 m.

Type: Pollution control. MMSI: 316014038.

Date/timePositionNaut miles runAvg speedWind from/ knotsBaromVisibWave heightAir tempDewpointWater temp
2014-Oct-23 03:22N 23°03' E 113°21'0 0.0
2014-Oct-23 02:33N 23°03' E 113°21'0 0.0
2014-Oct-23 01:33N 23°03' E 113°21'661561.7
2014-Oct-23 00:22N 31°22' E 121°28'5 1.2
2014-Oct-22 20:05N 31°19' E 121°33'5 0.8
2014-Oct-22 13:24N 31°22' E 121°28'5 5.4
2014-Oct-22 12:27N 31°19' E 121°33'662203.1
2014-Oct-22 09:11N 23°03' E 113°21'66223374.5
2014-Oct-22 09:09N 31°19' E 121°33'2828.3
2014-Oct-22 08:10N 31°40' E 121°12'3 5.5
2014-Oct-22 07:33N 31°42' E 121°08'31109.7
2014-Oct-22 07:16N 31°19' E 121°33'3641.6
2014-Oct-22 06:24N 31°45' E 121°04'36 7.4
2014-Oct-22 01:33N 31°19' E 121°33'5 4.6
2014-Oct-22 00:33N 31°23' E 121°30'3 2.9
2014-Oct-21 23:33N 31°26' E 121°30'8 5.9
2014-Oct-21 22:14N 31°30' E 121°23'53955667.5
2014-Oct-21 21:17N 49°18' W 122°53'53956497.6
2014-Oct-21 20:27N 31°38' E 121°14'5 5.8
2014-Oct-21 19:32N 31°41' E 121°09'36191.1
2014-Oct-21 19:21N 32°00' E 120°34'1 1.7
2014-Oct-21 18:33N 32°01' E 120°32'33731.8
2014-Oct-21 18:30N 31°45' E 121°06'3315.5
2014-Oct-21 16:24N 32°01' E 120°32'0 0.0
2014-Oct-21 15:07N 32°01' E 120°32'0 0.1
2014-Oct-21 14:31N 32°01' E 120°32'5 4.7
2014-Oct-21 13:33N 32°02' E 120°27'7168.5
2014-Oct-21 12:31N 31°19' E 121°33'731244.8
2014-Oct-21 12:28N 31°59' E 120°21'7351.9
2014-Oct-21 11:03N 31°19' E 121°33'0 0.0
2014-Oct-21 05:15N 31°19' E 121°33'0 0.0
2014-Oct-21 03:31N 31°19' E 121°33'413397.5
2014-Oct-21 02:28N 24°49' E 118°58'420433.7
2014-Oct-21 01:30N 31°29' E 121°27'4132529.2
2014-Oct-21 01:20N 24°55' E 119°04'40632455.4
2014-Oct-21 01:20N 31°19' E 121°33'6 7.5
2014-Oct-21 00:33N 31°25' E 121°31'5 4.6
2014-Oct-20 23:33N 31°20' E 121°33'1 4.9
2014-Oct-20 23:20N 31°19' E 121°33'53962596.1
2014-Oct-20 21:16N 49°18' W 122°53'1 0.7
2014-Oct-20 20:30N 49°18' W 122°53'54182652.7
2014-Oct-20 18:28N 31°59' E 120°19'5 5.7
2014-Oct-20 17:31N 32°01' E 120°25'7 5.4
2014-Oct-20 16:15N 32°02' E 120°33'14 1.3
2014-Oct-20 05:20N 31°57' E 120°17'6 6.7
2014-Oct-20 04:31N 32°00' E 120°23'12 5.7
2014-Oct-20 02:30N 32°01' E 120°36'29176.1
2014-Oct-20 02:20N 31°45' E 121°06'54107015.5
2014-Oct-20 01:33N 48°32' W 123°01'5409259635.1
2014-Oct-20 01:32N 31°41' E 121°11'54095524.2
2014-Oct-20 00:33N 48°32' W 123°01'0 0.0
2014-Oct-19 23:27N 48°32' W 123°01'0 0.0
2014-Oct-19 22:33N 48°32' W 123°01'0 0.0
2014-Oct-19 21:30N 48°32' W 123°01'17331829.1
2014-Oct-19 20:33N 29°33' W 095°00'173316903.4
2014-Oct-19 20:27N 48°32' W 123°01'0 0.0
2014-Oct-19 19:33N 48°32' W 123°01'0 0.0
2014-Oct-19 18:33N 48°32' W 123°01'541189350.6
2014-Oct-19 18:30N 31°22' E 121°30'54115759.4
2014-Oct-19 17:33N 48°32' W 123°01'0 0.0
2014-Oct-19 16:33N 48°32' W 123°01'543420634.2
2014-Oct-19 16:18N 31°58' E 120°20'74448.9
2014-Oct-19 16:08N 31°19' E 121°33'54109441.0
2014-Oct-19 15:33N 48°32' W 123°01'5434376174.8
2014-Oct-19 15:32N 31°58' E 120°20'0 0.0
2014-Oct-19 14:32N 31°58' E 120°20'543419084.0
2014-Oct-19 14:15N 48°32' W 123°01'0 0.0
2014-Oct-19 13:33N 48°32' W 123°01'5434326018.6
2014-Oct-19 13:32N 31°58' E 120°20'67227.5
2014-Oct-19 13:15N 31°21' E 121°26'54157866.9
2014-Oct-19 12:33N 48°32' W 123°01'5434326018.0
2014-Oct-19 12:32N 31°58' E 120°20'753129.9
2014-Oct-19 12:31N 31°17' E 121°34'54125642.0
2014-Oct-19 11:33N 48°32' W 123°01'54111082136.7
2014-Oct-19 11:33N 31°21' E 121°31'71514.7
2014-Oct-19 11:25N 31°57' E 120°20'73268.7
2014-Oct-19 11:08N 31°19' E 121°33'54109279.1
2014-Oct-19 10:33N 48°32' W 123°01'540881458.1
2014-Oct-19 10:29N 31°25' E 121°30'54085783.9
2014-Oct-19 09:33N 48°32' W 123°01'543450160.9
2014-Oct-19 09:27N 31°57' E 120°20'6222484.2
2014-Oct-19 09:27N 31°29' E 121°25'54096088.5
2014-Oct-19 08:33N 48°32' W 123°01'5410319251.9
2014-Oct-19 08:32N 31°32' E 121°20'57397.9
2014-Oct-19 08:24N 31°57' E 120°20'54346467.0
2014-Oct-19 07:33N 48°32' W 123°01'540917449.1
2014-Oct-19 07:15N 31°39' E 121°13'54097842.6
2014-Oct-19 06:33N 48°32' W 123°01'541063237.1
2014-Oct-19 06:28N 31°42' E 121°09'44583.0
2014-Oct-19 06:24N 31°57' E 120°20'73331.4
2014-Oct-19 06:10N 31°19' E 121°33'54108773.3
2014-Oct-19 05:33N 48°32' W 123°01'5434444608.3
2014-Oct-19 05:33N 31°57' E 120°20'41741.3
2014-Oct-19 05:29N 31°46' E 121°06'35107.3
2014-Oct-19 05:10N 31°19' E 121°33'54108979.6
2014-Oct-19 04:33N 48°32' W 123°01'5434383583.8
2014-Oct-19 04:33N 31°57' E 120°20'54345512.2
2014-Oct-19 03:33N 48°32' W 123°01'5410209428.4
2014-Oct-19 03:32N 31°19' E 121°33'54105553.7
2014-Oct-19 02:33N 48°32' W 123°01'5434349331.1
2014-Oct-19 02:33N 31°57' E 120°20'54345519.9
2014-Oct-19 01:33N 48°32' W 123°01'5412405885.8
2014-Oct-19 01:33N 32°02' E 120°44'21404.6
2014-Oct-19 01:30N 31°57' E 120°20'54345820.4
2014-Oct-19 00:34N 48°32' W 123°01'543432550.0
2014-Oct-19 00:23N 31°57' E 120°20'54346157.5
2014-Oct-18 23:31N 48°32' W 123°01'0 0.0
2014-Oct-18 22:33N 48°32' W 123°01'541011919.8
2014-Oct-18 22:06N 31°19' E 121°33'54109080.1
2014-Oct-18 21:31N 48°32' W 123°01'0 0.0
2014-Oct-18 20:31N 48°32' W 123°01'519324182.8
2014-Oct-18 20:18N 38°55' E 117°58'51936614.7
2014-Oct-18 19:31N 48°32' W 123°01'546290193.9
2014-Oct-18 19:27N 29°48' E 122°05'5842024.2
2014-Oct-18 19:10N 38°55' E 117°58'580895.7
2014-Oct-18 18:31N 29°53' E 122°08'54551510538.4
2014-Oct-18 18:31N 48°32' W 123°01'0 0.0
2014-Oct-18 17:31N 48°32' W 123°01'5459248755.0
2014-Oct-18 17:29N 29°56' E 122°00'5752931.3
2014-Oct-18 17:17N 38°55' E 117°58'51926635.7
2014-Oct-18 16:31N 48°32' W 123°01'0 0.0
2014-Oct-18 15:31N 48°32' W 123°01'541093638.6
2014-Oct-18 15:27N 31°19' E 121°33'73473.1
2014-Oct-18 15:18N 31°58' E 120°20'0 0.0
2014-Oct-18 14:33N 31°58' E 120°20'5434148186.5
2014-Oct-18 14:31N 48°32' W 123°01'541031721.6
2014-Oct-18 14:20N 31°19' E 121°33'7492.8
2014-Oct-18 13:33N 31°58' E 120°20'749806.4
2014-Oct-18 13:32N 31°19' E 121°33'5410187279.4
2014-Oct-18 13:31N 48°32' W 123°01'543939559.4
2014-Oct-18 13:22N 31°57' E 120°14'6 6.7
2014-Oct-18 12:33N 31°58' E 120°20'5433160332.7
2014-Oct-18 12:31N 48°32' W 123°01'543658587.3
2014-Oct-18 12:25N 31°58' E 120°17'2 2.5
2014-Oct-18 11:33N 31°58' E 120°20'5433165767.3
2014-Oct-18 11:31N 48°32' W 123°01'54335606.4
2014-Oct-18 10:32N 31°58' E 120°20'5433173102.4
2014-Oct-18 10:31N 48°32' W 123°01'541537128.8
2014-Oct-18 10:22N 31°21' E 121°26'2 2.8
2014-Oct-18 09:33N 31°22' E 121°28'6812328.8
2014-Oct-18 09:32N 31°58' E 120°20'5433174648.1
2014-Oct-18 09:31N 48°32' W 123°01'541186570.1
2014-Oct-18 09:27N 31°21' E 121°31'2 2.6
2014-Oct-18 08:33N 31°24' E 121°31'5408167849.2
2014-Oct-18 08:31N 48°32' W 123°01'5433271674.8
2014-Oct-18 08:29N 31°58' E 120°20'0 0.0
2014-Oct-18 07:32N 31°58' E 120°20'5433182809.1
2014-Oct-18 07:31N 48°32' W 123°01'540844861.9
2014-Oct-18 07:23N 31°28' E 121°26'50256.2
2014-Oct-18 07:12N 32°04' E 120°45'2234.3
2014-Oct-18 06:32N 31°58' E 120°20'5433189908.5
2014-Oct-18 06:31N 48°32' W 123°01'54345591.9
2014-Oct-18 05:32N 31°58' E 120°20'5434193669.4
2014-Oct-18 05:31N 48°32' W 123°01'54345312.5
2014-Oct-18 04:29N 31°58' E 120°20'5434197582.0
2014-Oct-18 04:28N 48°32' W 123°01'5409125637.2
2014-Oct-18 04:25N 31°39' E 121°13'54095966.2
2014-Oct-18 03:31N 48°32' W 123°01'5410927436.9
2014-Oct-18 03:30N 31°42' E 121°09'45655.5
2014-Oct-18 03:26N 31°58' E 120°20'0 0.0
2014-Oct-18 02:32N 31°58' E 120°20'5434210329.3
2014-Oct-18 02:31N 48°32' W 123°01'5406319055.4
2014-Oct-18 02:30N 31°23' E 121°35'6 5.9
2014-Oct-18 01:33N 31°26' E 121°29'6710099.0
2014-Oct-18 01:32N 31°58' E 120°20'5434227449.0
2014-Oct-18 01:31N 48°32' W 123°01'5408142108.3
2014-Oct-18 01:28N 31°47' E 121°06'4042.9
2014-Oct-18 00:32N 31°58' E 120°20'446571.7
2014-Oct-18 00:32N 31°43' E 121°09'5409367424.9
2014-Oct-18 00:31N 48°32' W 123°01'541014642.4
2014-Oct-18 00:09N 31°31' E 121°22'5997.3
2014-Oct-17 23:32N 31°58' E 120°20'5433250776.6
2014-Oct-17 23:31N 48°32' W 123°01'54345549.1
2014-Oct-17 22:32N 31°58' E 120°20'543477010.8
2014-Oct-17 22:28N 48°32' W 123°01'540968328.0
2014-Oct-17 22:23N 31°39' E 121°13'929.9
2014-Oct-17 22:05N 31°33' E 121°20'1629.2
2014-Oct-17 21:32N 31°44' E 121°06'5410299655.6
2014-Oct-17 21:31N 48°32' W 123°01'5434168627.1
2014-Oct-17 21:29N 31°58' E 120°20'61309.7
2014-Oct-17 21:17N 31°31' E 121°24'3 4.7
2014-Oct-17 20:33N 31°29' E 121°27'64958.8
2014-Oct-17 20:29N 31°58' E 120°20'5434369070.5
2014-Oct-17 20:28N 48°32' W 123°01'54075918.3
2014-Oct-17 19:33N 31°26' E 121°31'683071.0
2014-Oct-17 19:32N 31°58' E 120°20'5434362235.9
2014-Oct-17 19:31N 48°32' W 123°01'54115634.6
2014-Oct-17 18:33N 31°21' E 121°30'702683.8
2014-Oct-17 18:32N 31°58' E 120°20'5433416182.7
2014-Oct-17 18:31N 48°32' W 123°01'54195627.1
2014-Oct-17 17:33N 32°00' E 120°36'14587.0
2014-Oct-17 17:32N 31°58' E 120°20'5433425230.1
2014-Oct-17 17:31N 48°32' W 123°01'54335235.7
2014-Oct-17 16:28N 31°58' E 120°20'5433454897.1
2014-Oct-17 16:28N 48°32' W 123°01'5423179097.6
2014-Oct-17 16:26N 32°04' E 120°28'9 9.8
2014-Oct-17 15:31N 31°58' E 120°20'5434501554.0
2014-Oct-17 15:31N 48°32' W 123°01'54345485.3
2014-Oct-17 14:31N 31°58' E 120°20'543391833.8
2014-Oct-17 14:28N 48°32' W 123°01'0 0.0
2014-Oct-17 13:31N 48°32' W 123°01'5433131279.2
2014-Oct-17 13:28N 31°58' E 120°20'74618141.4
2014-Oct-17 12:33N 29°35' W 094°58'7461220151.9
2014-Oct-17 12:31N 31°58' E 120°20'92931394010.4
2014-Oct-17 12:31N 41°19' W 072°21'21961976255.3
2014-Oct-17 12:31N 48°32' W 123°01'54335473.0
2014-Oct-17 11:31N 31°58' E 120°20'5433724465.1
2014-Oct-17 11:31N 48°32' W 123°01'54335468.4
2014-Oct-17 10:31N 31°58' E 120°20'543397316.2
2014-Oct-17 10:28N 48°32' W 123°01'54335751.4
2014-Oct-17 09:31N 31°58' E 120°20'5433978028.4
2014-Oct-17 09:31N 48°32' W 123°01'54335463.9
2014-Oct-17 08:31N 31°58' E 120°20'54331086699.3
2014-Oct-17 08:31N 48°32' W 123°01'54335459.3
2014-Oct-17 07:31N 31°58' E 120°20'54331222535.5
2014-Oct-17 07:31N 48°32' W 123°01'54345456.3
2014-Oct-17 06:31N 31°58' E 120°20'54341222545.0
2014-Oct-17 06:31N 48°32' W 123°01'54255486.4
2014-Oct-17 05:32N 32°03' E 120°25'7928.5
2014-Oct-17 05:31N 31°58' E 120°20'54331778232.6
2014-Oct-17 05:31N 48°32' W 123°01'54215640.0
2014-Oct-17 04:33N 32°04' E 120°30'11292.9
2014-Oct-17 04:31N 31°58' E 120°20'54331630048.9
2014-Oct-17 04:31N 48°32' W 123°01'54195636.4
2014-Oct-17 03:33N 32°01' E 120°36'14402.2
2014-Oct-17 03:31N 31°58' E 120°20'54331778233.5
2014-Oct-17 03:31N 48°32' W 123°01'54345445.6
2014-Oct-17 02:31N 31°58' E 120°20'54342445080.0
2014-Oct-17 02:31N 48°32' W 123°01'54345442.6
2014-Oct-17 01:31N 31°58' E 120°20'5434105733.0
2014-Oct-17 01:28N 48°32' W 123°01'54345726.2
2014-Oct-17 00:31N 31°58' E 120°20'54344890157.6
2014-Oct-17 00:31N 48°32' W 123°01'54345433.5
2014-Oct-16 23:31N 31°58' E 120°20'54345435.0
2014-Oct-16 22:31N 48°32' W 123°01'543435957.0
2014-Oct-16 22:22N 31°58' E 120°20'0 0.0
2014-Oct-16 21:31N 31°58' E 120°20'74597442.5
2014-Oct-16 20:31N 29°33' W 095°02'7459153443.8
2014-Oct-16 20:28N 31°58' E 120°20'4361632.3
2014-Oct-16 20:12N 38°58' E 117°58'731211390.3
2014-Oct-16 19:33N 29°33' W 095°02'745919031.3
2014-Oct-16 19:10N 31°58' E 120°20'745912267.3
2014-Oct-16 18:33N 29°33' W 095°02'7459177835.8
2014-Oct-16 18:31N 31°58' E 120°20'54195459.5
2014-Oct-16 17:31N 49°18' W 122°53'175215201.1
2014-Oct-16 17:24N 29°33' W 095°02'745930654.4
2014-Oct-16 17:10N 31°58' E 120°20'745912301.1
2014-Oct-16 16:33N 29°33' W 095°02'175523056.1
2014-Oct-16 16:29N 49°17' W 122°58'5415286685.0
2014-Oct-16 16:28N 31°58' E 120°20'0 0.0
2014-Oct-16 15:33N 31°58' E 120°20'74592065632.3
2014-Oct-16 15:33N 29°33' W 095°02'74597471.7
2014-Oct-16 14:33N 31°58' E 120°20'745973369.5
2014-Oct-16 14:27N 29°33' W 095°02'0 0.0
2014-Oct-16 13:33N 29°33' W 095°02'745929870.3
2014-Oct-16 13:18N 31°58' E 120°20'0 0.0
2014-Oct-16 12:33N 31°58' E 120°20'74597459.3
2014-Oct-16 11:33N 29°33' W 095°02'7459148361.4
2014-Oct-16 11:30N 31°58' E 120°20'0 0.1
2014-Oct-16 10:33N 31°58' E 120°20'745975219.1
2014-Oct-16 10:27N 29°33' W 095°02'0 0.0
2014-Oct-16 09:30N 29°33' W 095°02'74594475539.0
2014-Oct-16 09:30N 31°58' E 120°20'74597867.9
2014-Oct-16 08:33N 29°33' W 095°02'7463358205.5
2014-Oct-16 08:32N 31°57' E 120°17'76912.6
2014-Oct-16 08:27N 31°15' E 121°32'74248287.6
2014-Oct-16 07:33N 29°33' W 095°02'7420116146.3
2014-Oct-16 07:29N 31°19' E 121°33'1 3.7
2014-Oct-16 07:18N 31°19' E 121°33'3 4.7
2014-Oct-16 06:33N 31°22' E 121°30'74223339690.5
2014-Oct-16 06:33N 29°33' W 095°02'742265484.4
2014-Oct-16 06:27N 31°21' E 121°30'3 3.7
2014-Oct-16 05:34N 31°25' E 121°31'7419139107.1
2014-Oct-16 05:30N 29°33' W 095°02'741932297.2
2014-Oct-16 05:17N 31°25' E 121°30'74199635.6
2014-Oct-16 04:30N 29°33' W 095°02'7421513747.6
2014-Oct-16 04:29N 31°28' E 121°26'74217934.3
2014-Oct-16 03:33N 29°33' W 095°02'0 0.0
2014-Oct-16 02:33N 29°33' W 095°02'0 0.0
2014-Oct-16 01:33N 29°33' W 095°02'742641899.9
2014-Oct-16 01:23N 31°39' E 121°13'74269031.1
2014-Oct-16 00:33N 29°33' W 095°02'743560828.2
2014-Oct-16 00:26N 31°48' E 120°56'124383.3
2014-Oct-16 00:26N 31°42' E 121°08'74288491.7
2014-Oct-15 23:33N 29°33' W 095°02'742759812.9
2014-Oct-15 23:26N 31°47' E 121°06'1 4.9
2014-Oct-15 23:08N 31°46' E 121°05'742912912.9
2014-Oct-15 22:33N 29°33' W 095°02'135941467.3
2014-Oct-15 22:31N 41°32' W 071°24'9291146055.5
2014-Oct-15 22:28N 31°43' E 121°08'74277793.0
2014-Oct-15 21:30N 29°33' W 095°02'742492801.2
2014-Oct-15 21:26N 31°38' E 121°15'74248530.7
2014-Oct-15 20:33N 29°33' W 095°02'0 0.0
2014-Oct-15 19:27N 29°33' W 095°02'742068312.8
2014-Oct-15 19:21N 31°28' E 121°28'74209375.3
2014-Oct-15 18:33N 29°33' W 095°02'741623922.4
2014-Oct-15 18:15N 31°23' E 121°35'608143961.8
2014-Oct-15 18:07N 33°45' W 118°10'60799665.5
2014-Oct-15 17:29N 31°21' E 121°40'7413333589.0
2014-Oct-15 17:27N 29°33' W 095°02'12073192.7
2014-Oct-15 17:05N 33°45' W 118°08'12071939.9
2014-Oct-15 16:27N 29°33' W 095°02'120912025.7
2014-Oct-15 16:21N 33°45' W 118°11'12091513.1
2014-Oct-15 15:33N 29°33' W 095°02'0 0.0
2014-Oct-15 14:12N 29°33' W 095°02'0 0.0
2014-Oct-15 12:34N 29°33' W 095°02'0 0.0
2014-Oct-15 11:33N 29°33' W 095°02'0 0.0
2014-Oct-15 10:33N 29°33' W 095°02'0 0.0
2014-Oct-15 09:34N 29°33' W 095°02'0 0.0
2014-Oct-15 08:34N 29°33' W 095°02'0 0.0
2014-Oct-15 07:31N 29°33' W 095°02'0 0.0
2014-Oct-15 06:28N 29°33' W 095°02'0 0.0
2014-Oct-15 05:28N 29°33' W 095°02'0 0.0
2014-Oct-15 04:28N 29°33' W 095°02'0 0.0
2014-Oct-15 03:28N 29°33' W 095°02'746688121.3
2014-Oct-15 03:23N 31°57' E 120°13'3 4.2
2014-Oct-15 02:33N 31°58' E 120°17'746239044.4
2014-Oct-15 02:22N 29°33' W 095°02'74608830.9
2014-Oct-15 01:31N 31°57' E 120°20'74601413412.9
2014-Oct-15 01:31N 29°33' W 095°02'74607495.0
2014-Oct-15 00:31N 31°57' E 120°20'746024502.4
2014-Oct-15 00:13N 29°33' W 095°02'0 0.0
2014-Oct-14 23:31N 29°33' W 095°02'0 0.0
2014-Oct-14 22:28N 29°33' W 095°02'136112502.9
2014-Oct-14 22:21N 41°37' W 071°24'13611527.3
2014-Oct-14 21:28N 29°33' W 095°02'0 0.0
2014-Oct-14 20:16N 29°33' W 095°02'0 0.0
2014-Oct-14 19:28N 29°33' W 095°02'74457663.9
2014-Oct-14 18:29N 29°58' E 122°03'7445260199.6
2014-Oct-14 18:28N 29°33' W 095°02'742051368.7
2014-Oct-14 18:19N 31°30' E 121°26'4 5.5
2014-Oct-14 17:33N 31°27' E 121°29'6647867.0
2014-Oct-14 17:33N 31°57' E 120°20'7460208177.0
2014-Oct-14 17:31N 29°33' W 095°02'74597729.7
2014-Oct-14 16:33N 31°58' E 120°20'702249.9
2014-Oct-14 16:31N 31°25' E 121°32'74181907364.3
2014-Oct-14 16:31N 29°33' W 095°02'74177511.4
2014-Oct-14 15:31N 31°25' E 121°32'7417620997.7
2014-Oct-14 15:31N 29°33' W 095°02'7459109604.0
2014-Oct-14 15:27N 31°58' E 120°20'7078.4
2014-Oct-14 14:33N 31°24' E 121°31'705573.5
2014-Oct-14 14:33N 31°58' E 120°20'745956891.9
2014-Oct-14 14:25N 29°33' W 095°02'74208675.7
2014-Oct-14 13:33N 31°19' E 121°34'7420165916.5
2014-Oct-14 13:31N 29°33' W 095°02'7459107411.9
2014-Oct-14 13:27N 31°58' E 120°20'0 0.0
2014-Oct-14 12:32N 31°58' E 120°20'7459248638.7
2014-Oct-14 12:31N 29°33' W 095°02'74597681.2
2014-Oct-14 11:32N 31°58' E 120°20'7459260712.0
2014-Oct-14 11:31N 29°33' W 095°02'74597674.6
2014-Oct-14 10:32N 31°58' E 120°20'7459274013.2
2014-Oct-14 10:31N 29°33' W 095°02'743660698.7
2014-Oct-14 10:23N 32°02' E 120°45'2125.0
2014-Oct-14 09:32N 31°58' E 120°20'7459276835.1
2014-Oct-14 09:31N 29°33' W 095°02'0 0.0
2014-Oct-14 08:31N 29°33' W 095°02'745999825.2
2014-Oct-14 08:26N 31°58' E 120°20'0 0.0
2014-Oct-14 07:32N 31°58' E 120°20'7459295087.8
2014-Oct-14 07:31N 29°33' W 095°02'74597650.4
2014-Oct-14 06:32N 31°58' E 120°20'7459295087.8
2014-Oct-14 06:31N 29°33' W 095°02'74597648.2
2014-Oct-14 05:32N 31°58' E 120°20'7459305147.5
2014-Oct-14 05:31N 29°33' W 095°02'74597637.4
2014-Oct-14 04:32N 31°58' E 120°20'7459319678.3
2014-Oct-14 04:31N 29°33' W 095°02'74597637.4
2014-Oct-14 03:32N 31°58' E 120°20'7459327475.3
2014-Oct-14 03:31N 29°33' W 095°02'74597630.9
2014-Oct-14 02:32N 31°58' E 120°20'7459327475.3
2014-Oct-14 02:31N 29°33' W 095°02'74597630.9
2014-Oct-14 01:32N 31°58' E 120°20'745943451.4
2014-Oct-14 01:22N 29°33' W 095°02'74599002.0
2014-Oct-14 00:32N 31°58' E 120°20'7459348740.0
2014-Oct-14 00:31N 29°33' W 095°02'74597615.7
2014-Oct-13 23:32N 31°58' E 120°20'745943663.4
2014-Oct-13 23:22N 29°33' W 095°02'0 0.0
2014-Oct-13 22:31N 29°33' W 095°02'7459253330.2
2014-Oct-13 22:29N 31°58' E 120°20'0 0.0
2014-Oct-13 21:32N 31°58' E 120°20'7459413122.7
2014-Oct-13 21:31N 29°33' W 095°02'74597579.2
2014-Oct-13 20:32N 31°58' E 120°20'7459113783.8
2014-Oct-13 20:28N 29°33' W 095°02'74597965.9
2014-Oct-13 19:32N 31°58' E 120°20'7459116752.2
2014-Oct-13 19:28N 29°33' W 095°02'731327169.9
2014-Oct-13 19:12N 38°56' E 117°58'434646.7
2014-Oct-13 18:31N 31°58' E 120°20'7459125481.3
2014-Oct-13 18:28N 29°33' W 095°02'742125964.4
2014-Oct-13 18:11N 31°17' E 121°34'3 5.1
2014-Oct-13 17:32N 31°20' E 121°33'7313853.0
2014-Oct-13 17:31N 31°58' E 120°20'7459994554.7
2014-Oct-13 17:31N 29°33' W 095°02'74217739.5
2014-Oct-13 16:33N 31°22' E 121°30'691996.2
2014-Oct-13 16:31N 31°58' E 120°20'74591167521.3
2014-Oct-13 16:31N 29°33' W 095°02'731316558.3
2014-Oct-13 16:04N 38°56' E 117°58'483909.3
2014-Oct-13 15:32N 31°25' E 121°30'68962.2
2014-Oct-13 15:28N 31°58' E 120°20'74591491833.5
2014-Oct-13 15:28N 29°33' W 095°02'74217904.5
2014-Oct-13 14:32N 31°29' E 121°25'628630.1
2014-Oct-13 14:31N 31°58' E 120°20'74591790197.5
2014-Oct-13 14:31N 29°33' W 095°02'74597488.3
2014-Oct-13 13:31N 31°58' E 120°20'0 0.0
2014-Oct-13 12:31N 31°58' E 120°20'48179.3
2014-Oct-13 12:15N 31°39' E 121°12'22118.9
2014-Oct-13 12:04N 31°22' E 121°29'69126.1
2014-Oct-13 11:31N 31°58' E 120°20'441011.0
2014-Oct-13 11:28N 31°42' E 121°08'4445.5
2014-Oct-13 10:31N 31°58' E 120°20'9231107197.8
2014-Oct-13 10:26N 41°37' W 071°24'9280393025.4
2014-Oct-13 10:24N 31°47' E 121°06'4145.6
2014-Oct-13 09:31N 31°58' E 120°20'74593730.7
2014-Oct-13 07:31N 29°33' W 095°02'74592983658.1
2014-Oct-13 07:31N 31°58' E 120°20'74597473.7
2014-Oct-13 06:31N 29°33' W 095°02'74592983661.1
2014-Oct-13 06:31N 31°58' E 120°20'74597475.8
2014-Oct-13 05:31N 29°33' W 095°02'74592685293.6
2014-Oct-13 05:31N 31°58' E 120°20'0 0.0
2014-Oct-13 04:31N 31°58' E 120°20'7459160796.2
2014-Oct-13 04:28N 29°33' W 095°02'0 0.0
2014-Oct-13 03:31N 29°33' W 095°02'74591678310.2
2014-Oct-13 03:31N 31°58' E 120°20'  
Track history (hours):
 
Tides and Currents Weather Stations Pressure Air Temp Water Temp Dewpoint Dewpoint Depression Visibility Wind Speed Wind Dir Waves Ship Positions

Paulistana II

Last reported at 2014-Oct-23 03:22 UTC. Time now 2014-Oct-23 03:48 UTC.
Position N 23°03' E 113°21'.

Length 6 m.

Type: Pollution control. MMSI: 316014038.

Date/timePositionNaut miles runAvg speedWind from/ knotsBaromVisibWave heightAir tempDewpointWater temp
2014-Oct-23 03:22N 23°03' E 113°21'0 0.0
2014-Oct-23 02:33N 23°03' E 113°21'0 0.0
2014-Oct-23 01:33N 23°03' E 113°21'661561.7
2014-Oct-23 00:22N 31°22' E 121°28'5 1.2
2014-Oct-22 20:05N 31°19' E 121°33'5 0.8
2014-Oct-22 13:24N 31°22' E 121°28'5 5.4
2014-Oct-22 12:27N 31°19' E 121°33'662203.1
2014-Oct-22 09:11N 23°03' E 113°21'66223374.5
2014-Oct-22 09:09N 31°19' E 121°33'2828.3
2014-Oct-22 08:10N 31°40' E 121°12'3 5.5
2014-Oct-22 07:33N 31°42' E 121°08'31109.7
2014-Oct-22 07:16N 31°19' E 121°33'3641.6
2014-Oct-22 06:24N 31°45' E 121°04'36 7.4
2014-Oct-22 01:33N 31°19' E 121°33'5 4.6
2014-Oct-22 00:33N 31°23' E 121°30'3 2.9
2014-Oct-21 23:33N 31°26' E 121°30'8 5.9
2014-Oct-21 22:14N 31°30' E 121°23'53955667.5
2014-Oct-21 21:17N 49°18' W 122°53'53956497.6
2014-Oct-21 20:27N 31°38' E 121°14'5 5.8
2014-Oct-21 19:32N 31°41' E 121°09'36191.1
2014-Oct-21 19:21N 32°00' E 120°34'1 1.7
2014-Oct-21 18:33N 32°01' E 120°32'33731.8
2014-Oct-21 18:30N 31°45' E 121°06'3315.5
2014-Oct-21 16:24N 32°01' E 120°32'0 0.0
2014-Oct-21 15:07N 32°01' E 120°32'0 0.1
2014-Oct-21 14:31N 32°01' E 120°32'5 4.7
2014-Oct-21 13:33N 32°02' E 120°27'7168.5
2014-Oct-21 12:31N 31°19' E 121°33'731244.8
2014-Oct-21 12:28N 31°59' E 120°21'7351.9
2014-Oct-21 11:03N 31°19' E 121°33'0 0.0
2014-Oct-21 05:15N 31°19' E 121°33'0 0.0
2014-Oct-21 03:31N 31°19' E 121°33'413397.5
2014-Oct-21 02:28N 24°49' E 118°58'420433.7
2014-Oct-21 01:30N 31°29' E 121°27'4132529.2
2014-Oct-21 01:20N 24°55' E 119°04'40632455.4
2014-Oct-21 01:20N 31°19' E 121°33'6 7.5
2014-Oct-21 00:33N 31°25' E 121°31'5 4.6
2014-Oct-20 23:33N 31°20' E 121°33'1 4.9
2014-Oct-20 23:20N 31°19' E 121°33'53962596.1
2014-Oct-20 21:16N 49°18' W 122°53'1 0.7
2014-Oct-20 20:30N 49°18' W 122°53'54182652.7
2014-Oct-20 18:28N 31°59' E 120°19'5 5.7
2014-Oct-20 17:31N 32°01' E 120°25'7 5.4
2014-Oct-20 16:15N 32°02' E 120°33'14 1.3
2014-Oct-20 05:20N 31°57' E 120°17'6 6.7
2014-Oct-20 04:31N 32°00' E 120°23'12 5.7
2014-Oct-20 02:30N 32°01' E 120°36'29176.1
2014-Oct-20 02:20N 31°45' E 121°06'54107015.5
2014-Oct-20 01:33N 48°32' W 123°01'5409259635.1
2014-Oct-20 01:32N 31°41' E 121°11'54095524.2
2014-Oct-20 00:33N 48°32' W 123°01'0 0.0
2014-Oct-19 23:27N 48°32' W 123°01'0 0.0
2014-Oct-19 22:33N 48°32' W 123°01'0 0.0
2014-Oct-19 21:30N 48°32' W 123°01'17331829.1
2014-Oct-19 20:33N 29°33' W 095°00'173316903.4
2014-Oct-19 20:27N 48°32' W 123°01'0 0.0
2014-Oct-19 19:33N 48°32' W 123°01'0 0.0
2014-Oct-19 18:33N 48°32' W 123°01'541189350.6
2014-Oct-19 18:30N 31°22' E 121°30'54115759.4
2014-Oct-19 17:33N 48°32' W 123°01'0 0.0
2014-Oct-19 16:33N 48°32' W 123°01'543420634.2
2014-Oct-19 16:18N 31°58' E 120°20'74448.9
2014-Oct-19 16:08N 31°19' E 121°33'54109441.0
2014-Oct-19 15:33N 48°32' W 123°01'5434376174.8
2014-Oct-19 15:32N 31°58' E 120°20'0 0.0
2014-Oct-19 14:32N 31°58' E 120°20'543419084.0
2014-Oct-19 14:15N 48°32' W 123°01'0 0.0
2014-Oct-19 13:33N 48°32' W 123°01'5434326018.6
2014-Oct-19 13:32N 31°58' E 120°20'67227.5
2014-Oct-19 13:15N 31°21' E 121°26'54157866.9
2014-Oct-19 12:33N 48°32' W 123°01'5434326018.0
2014-Oct-19 12:32N 31°58' E 120°20'753129.9
2014-Oct-19 12:31N 31°17' E 121°34'54125642.0
2014-Oct-19 11:33N 48°32' W 123°01'54111082136.7
2014-Oct-19 11:33N 31°21' E 121°31'71514.7
2014-Oct-19 11:25N 31°57' E 120°20'73268.7
2014-Oct-19 11:08N 31°19' E 121°33'54109279.1
2014-Oct-19 10:33N 48°32' W 123°01'540881458.1
2014-Oct-19 10:29N 31°25' E 121°30'54085783.9
2014-Oct-19 09:33N 48°32' W 123°01'543450160.9
2014-Oct-19 09:27N 31°57' E 120°20'6222484.2
2014-Oct-19 09:27N 31°29' E 121°25'54096088.5
2014-Oct-19 08:33N 48°32' W 123°01'5410319251.9
2014-Oct-19 08:32N 31°32' E 121°20'57397.9
2014-Oct-19 08:24N 31°57' E 120°20'54346467.0
2014-Oct-19 07:33N 48°32' W 123°01'540917449.1
2014-Oct-19 07:15N 31°39' E 121°13'54097842.6
2014-Oct-19 06:33N 48°32' W 123°01'541063237.1
2014-Oct-19 06:28N 31°42' E 121°09'44583.0
2014-Oct-19 06:24N 31°57' E 120°20'73331.4
2014-Oct-19 06:10N 31°19' E 121°33'54108773.3
2014-Oct-19 05:33N 48°32' W 123°01'5434444608.3
2014-Oct-19 05:33N 31°57' E 120°20'41741.3
2014-Oct-19 05:29N 31°46' E 121°06'35107.3
2014-Oct-19 05:10N 31°19' E 121°33'54108979.6
2014-Oct-19 04:33N 48°32' W 123°01'5434383583.8
2014-Oct-19 04:33N 31°57' E 120°20'54345512.2
2014-Oct-19 03:33N 48°32' W 123°01'5410209428.4
2014-Oct-19 03:32N 31°19' E 121°33'54105553.7
2014-Oct-19 02:33N 48°32' W 123°01'5434349331.1
2014-Oct-19 02:33N 31°57' E 120°20'54345519.9
2014-Oct-19 01:33N 48°32' W 123°01'5412405885.8
2014-Oct-19 01:33N 32°02' E 120°44'21404.6
2014-Oct-19 01:30N 31°57' E 120°20'54345820.4
2014-Oct-19 00:34N 48°32' W 123°01'543432550.0
2014-Oct-19 00:23N 31°57' E 120°20'54346157.5
2014-Oct-18 23:31N 48°32' W 123°01'0 0.0
2014-Oct-18 22:33N 48°32' W 123°01'541011919.8
2014-Oct-18 22:06N 31°19' E 121°33'54109080.1
2014-Oct-18 21:31N 48°32' W 123°01'0 0.0
2014-Oct-18 20:31N 48°32' W 123°01'519324182.8
2014-Oct-18 20:18N 38°55' E 117°58'51936614.7
2014-Oct-18 19:31N 48°32' W 123°01'546290193.9
2014-Oct-18 19:27N 29°48' E 122°05'5842024.2
2014-Oct-18 19:10N 38°55' E 117°58'580895.7
2014-Oct-18 18:31N 29°53' E 122°08'54551510538.4
2014-Oct-18 18:31N 48°32' W 123°01'0 0.0
2014-Oct-18 17:31N 48°32' W 123°01'5459248755.0
2014-Oct-18 17:29N 29°56' E 122°00'5752931.3
2014-Oct-18 17:17N 38°55' E 117°58'51926635.7
2014-Oct-18 16:31N 48°32' W 123°01'0 0.0
2014-Oct-18 15:31N 48°32' W 123°01'541093638.6
2014-Oct-18 15:27N 31°19' E 121°33'73473.1
2014-Oct-18 15:18N 31°58' E 120°20'0 0.0
2014-Oct-18 14:33N 31°58' E 120°20'5434148186.5
2014-Oct-18 14:31N 48°32' W 123°01'541031721.6
2014-Oct-18 14:20N 31°19' E 121°33'7492.8
2014-Oct-18 13:33N 31°58' E 120°20'749806.4
2014-Oct-18 13:32N 31°19' E 121°33'5410187279.4
2014-Oct-18 13:31N 48°32' W 123°01'543939559.4
2014-Oct-18 13:22N 31°57' E 120°14'6 6.7
2014-Oct-18 12:33N 31°58' E 120°20'5433160332.7
2014-Oct-18 12:31N 48°32' W 123°01'543658587.3
2014-Oct-18 12:25N 31°58' E 120°17'2 2.5
2014-Oct-18 11:33N 31°58' E 120°20'5433165767.3
2014-Oct-18 11:31N 48°32' W 123°01'54335606.4
2014-Oct-18 10:32N 31°58' E 120°20'5433173102.4
2014-Oct-18 10:31N 48°32' W 123°01'541537128.8
2014-Oct-18 10:22N 31°21' E 121°26'2 2.8
2014-Oct-18 09:33N 31°22' E 121°28'6812328.8
2014-Oct-18 09:32N 31°58' E 120°20'5433174648.1
2014-Oct-18 09:31N 48°32' W 123°01'541186570.1
2014-Oct-18 09:27N 31°21' E 121°31'2 2.6
2014-Oct-18 08:33N 31°24' E 121°31'5408167849.2
2014-Oct-18 08:31N 48°32' W 123°01'5433271674.8
2014-Oct-18 08:29N 31°58' E 120°20'0 0.0
2014-Oct-18 07:32N 31°58' E 120°20'5433182809.1
2014-Oct-18 07:31N 48°32' W 123°01'540844861.9
2014-Oct-18 07:23N 31°28' E 121°26'50256.2
2014-Oct-18 07:12N 32°04' E 120°45'2234.3
2014-Oct-18 06:32N 31°58' E 120°20'5433189908.5
2014-Oct-18 06:31N 48°32' W 123°01'54345591.9
2014-Oct-18 05:32N 31°58' E 120°20'5434193669.4
2014-Oct-18 05:31N 48°32' W 123°01'54345312.5
2014-Oct-18 04:29N 31°58' E 120°20'5434197582.0
2014-Oct-18 04:28N 48°32' W 123°01'5409125637.2
2014-Oct-18 04:25N 31°39' E 121°13'54095966.2
2014-Oct-18 03:31N 48°32' W 123°01'5410927436.9
2014-Oct-18 03:30N 31°42' E 121°09'45655.5
2014-Oct-18 03:26N 31°58' E 120°20'0 0.0
2014-Oct-18 02:32N 31°58' E 120°20'5434210329.3
2014-Oct-18 02:31N 48°32' W 123°01'5406319055.4
2014-Oct-18 02:30N 31°23' E 121°35'6 5.9
2014-Oct-18 01:33N 31°26' E 121°29'6710099.0
2014-Oct-18 01:32N 31°58' E 120°20'5434227449.0
2014-Oct-18 01:31N 48°32' W 123°01'5408142108.3
2014-Oct-18 01:28N 31°47' E 121°06'4042.9
2014-Oct-18 00:32N 31°58' E 120°20'446571.7
2014-Oct-18 00:32N 31°43' E 121°09'5409367424.9
2014-Oct-18 00:31N 48°32' W 123°01'541014642.4
2014-Oct-18 00:09N 31°31' E 121°22'5997.3
2014-Oct-17 23:32N 31°58' E 120°20'5433250776.6
2014-Oct-17 23:31N 48°32' W 123°01'54345549.1
2014-Oct-17 22:32N 31°58' E 120°20'543477010.8
2014-Oct-17 22:28N 48°32' W 123°01'540968328.0
2014-Oct-17 22:23N 31°39' E 121°13'929.9
2014-Oct-17 22:05N 31°33' E 121°20'1629.2
2014-Oct-17 21:32N 31°44' E 121°06'5410299655.6
2014-Oct-17 21:31N 48°32' W 123°01'5434168627.1
2014-Oct-17 21:29N 31°58' E 120°20'61309.7
2014-Oct-17 21:17N 31°31' E 121°24'3 4.7
2014-Oct-17 20:33N 31°29' E 121°27'64958.8
2014-Oct-17 20:29N 31°58' E 120°20'5434369070.5
2014-Oct-17 20:28N 48°32' W 123°01'54075918.3
2014-Oct-17 19:33N 31°26' E 121°31'683071.0
2014-Oct-17 19:32N 31°58' E 120°20'5434362235.9
2014-Oct-17 19:31N 48°32' W 123°01'54115634.6
2014-Oct-17 18:33N 31°21' E 121°30'702683.8
2014-Oct-17 18:32N 31°58' E 120°20'5433416182.7
2014-Oct-17 18:31N 48°32' W 123°01'54195627.1
2014-Oct-17 17:33N 32°00' E 120°36'14587.0
2014-Oct-17 17:32N 31°58' E 120°20'5433425230.1
2014-Oct-17 17:31N 48°32' W 123°01'54335235.7
2014-Oct-17 16:28N 31°58' E 120°20'5433454897.1
2014-Oct-17 16:28N 48°32' W 123°01'5423179097.6
2014-Oct-17 16:26N 32°04' E 120°28'9 9.8
2014-Oct-17 15:31N 31°58' E 120°20'5434501554.0
2014-Oct-17 15:31N 48°32' W 123°01'54345485.3
2014-Oct-17 14:31N 31°58' E 120°20'543391833.8
2014-Oct-17 14:28N 48°32' W 123°01'0 0.0
2014-Oct-17 13:31N 48°32' W 123°01'5433131279.2
2014-Oct-17 13:28N 31°58' E 120°20'74618141.4
2014-Oct-17 12:33N 29°35' W 094°58'7461220151.9
2014-Oct-17 12:31N 31°58' E 120°20'92931394010.4
2014-Oct-17 12:31N 41°19' W 072°21'21961976255.3
2014-Oct-17 12:31N 48°32' W 123°01'54335473.0
2014-Oct-17 11:31N 31°58' E 120°20'5433724465.1
2014-Oct-17 11:31N 48°32' W 123°01'54335468.4
2014-Oct-17 10:31N 31°58' E 120°20'543397316.2
2014-Oct-17 10:28N 48°32' W 123°01'54335751.4
2014-Oct-17 09:31N 31°58' E 120°20'5433978028.4
2014-Oct-17 09:31N 48°32' W 123°01'54335463.9
2014-Oct-17 08:31N 31°58' E 120°20'54331086699.3
2014-Oct-17 08:31N 48°32' W 123°01'54335459.3
2014-Oct-17 07:31N 31°58' E 120°20'54331222535.5
2014-Oct-17 07:31N 48°32' W 123°01'54345456.3
2014-Oct-17 06:31N 31°58' E 120°20'54341222545.0
2014-Oct-17 06:31N 48°32' W 123°01'54255486.4
2014-Oct-17 05:32N 32°03' E 120°25'7928.5
2014-Oct-17 05:31N 31°58' E 120°20'54331778232.6
2014-Oct-17 05:31N 48°32' W 123°01'54215640.0
2014-Oct-17 04:33N 32°04' E 120°30'11292.9
2014-Oct-17 04:31N 31°58' E 120°20'54331630048.9
2014-Oct-17 04:31N 48°32' W 123°01'54195636.4
2014-Oct-17 03:33N 32°01' E 120°36'14402.2
2014-Oct-17 03:31N 31°58' E 120°20'54331778233.5
2014-Oct-17 03:31N 48°32' W 123°01'54345445.6
2014-Oct-17 02:31N 31°58' E 120°20'54342445080.0
2014-Oct-17 02:31N 48°32' W 123°01'54345442.6
2014-Oct-17 01:31N 31°58' E 120°20'5434105733.0
2014-Oct-17 01:28N 48°32' W 123°01'54345726.2
2014-Oct-17 00:31N 31°58' E 120°20'54344890157.6
2014-Oct-17 00:31N 48°32' W 123°01'54345433.5
2014-Oct-16 23:31N 31°58' E 120°20'54345435.0
2014-Oct-16 22:31N 48°32' W 123°01'543435957.0
2014-Oct-16 22:22N 31°58' E 120°20'0 0.0
2014-Oct-16 21:31N 31°58' E 120°20'74597442.5
2014-Oct-16 20:31N 29°33' W 095°02'7459153443.8
2014-Oct-16 20:28N 31°58' E 120°20'4361632.3
2014-Oct-16 20:12N 38°58' E 117°58'731211390.3
2014-Oct-16 19:33N 29°33' W 095°02'745919031.3
2014-Oct-16 19:10N 31°58' E 120°20'745912267.3
2014-Oct-16 18:33N 29°33' W 095°02'7459177835.8
2014-Oct-16 18:31N 31°58' E 120°20'54195459.5
2014-Oct-16 17:31N 49°18' W 122°53'175215201.1
2014-Oct-16 17:24N 29°33' W 095°02'745930654.4
2014-Oct-16 17:10N 31°58' E 120°20'745912301.1
2014-Oct-16 16:33N 29°33' W 095°02'175523056.1
2014-Oct-16 16:29N 49°17' W 122°58'5415286685.0
2014-Oct-16 16:28N 31°58' E 120°20'0 0.0
2014-Oct-16 15:33N 31°58' E 120°20'74592065632.3
2014-Oct-16 15:33N 29°33' W 095°02'74597471.7
2014-Oct-16 14:33N 31°58' E 120°20'745973369.5
2014-Oct-16 14:27N 29°33' W 095°02'0 0.0
2014-Oct-16 13:33N 29°33' W 095°02'745929870.3
2014-Oct-16 13:18N 31°58' E 120°20'0 0.0
2014-Oct-16 12:33N 31°58' E 120°20'74597459.3
2014-Oct-16 11:33N 29°33' W 095°02'7459148361.4
2014-Oct-16 11:30N 31°58' E 120°20'0 0.1
2014-Oct-16 10:33N 31°58' E 120°20'745975219.1
2014-Oct-16 10:27N 29°33' W 095°02'0 0.0
2014-Oct-16 09:30N 29°33' W 095°02'74594475539.0
2014-Oct-16 09:30N 31°58' E 120°20'74597867.9
2014-Oct-16 08:33N 29°33' W 095°02'7463358205.5
2014-Oct-16 08:32N 31°57' E 120°17'76912.6
2014-Oct-16 08:27N 31°15' E 121°32'74248287.6
2014-Oct-16 07:33N 29°33' W 095°02'7420116146.3
2014-Oct-16 07:29N 31°19' E 121°33'1 3.7
2014-Oct-16 07:18N 31°19' E 121°33'3 4.7
2014-Oct-16 06:33N 31°22' E 121°30'74223339690.5
2014-Oct-16 06:33N 29°33' W 095°02'742265484.4
2014-Oct-16 06:27N 31°21' E 121°30'3 3.7
2014-Oct-16 05:34N 31°25' E 121°31'7419139107.1
2014-Oct-16 05:30N 29°33' W 095°02'741932297.2
2014-Oct-16 05:17N 31°25' E 121°30'74199635.6
2014-Oct-16 04:30N 29°33' W 095°02'7421513747.6
2014-Oct-16 04:29N 31°28' E 121°26'74217934.3
2014-Oct-16 03:33N 29°33' W 095°02'0 0.0
2014-Oct-16 02:33N 29°33' W 095°02'0 0.0
2014-Oct-16 01:33N 29°33' W 095°02'742641899.9
2014-Oct-16 01:23N 31°39' E 121°13'74269031.1
2014-Oct-16 00:33N 29°33' W 095°02'743560828.2
2014-Oct-16 00:26N 31°48' E 120°56'124383.3
2014-Oct-16 00:26N 31°42' E 121°08'74288491.7
2014-Oct-15 23:33N 29°33' W 095°02'742759812.9
2014-Oct-15 23:26N 31°47' E 121°06'1 4.9
2014-Oct-15 23:08N 31°46' E 121°05'742912912.9
2014-Oct-15 22:33N 29°33' W 095°02'135941467.3
2014-Oct-15 22:31N 41°32' W 071°24'9291146055.5
2014-Oct-15 22:28N 31°43' E 121°08'74277793.0
2014-Oct-15 21:30N 29°33' W 095°02'742492801.2
2014-Oct-15 21:26N 31°38' E 121°15'74248530.7
2014-Oct-15 20:33N 29°33' W 095°02'0 0.0
2014-Oct-15 19:27N 29°33' W 095°02'742068312.8
2014-Oct-15 19:21N 31°28' E 121°28'74209375.3
2014-Oct-15 18:33N 29°33' W 095°02'741623922.4
2014-Oct-15 18:15N 31°23' E 121°35'608143961.8
2014-Oct-15 18:07N 33°45' W 118°10'60799665.5
2014-Oct-15 17:29N 31°21' E 121°40'7413333589.0
2014-Oct-15 17:27N 29°33' W 095°02'12073192.7
2014-Oct-15 17:05N 33°45' W 118°08'12071939.9
2014-Oct-15 16:27N 29°33' W 095°02'120912025.7
2014-Oct-15 16:21N 33°45' W 118°11'12091513.1
2014-Oct-15 15:33N 29°33' W 095°02'0 0.0
2014-Oct-15 14:12N 29°33' W 095°02'0 0.0
2014-Oct-15 12:34N 29°33' W 095°02'0 0.0
2014-Oct-15 11:33N 29°33' W 095°02'0 0.0
2014-Oct-15 10:33N 29°33' W 095°02'0 0.0
2014-Oct-15 09:34N 29°33' W 095°02'0 0.0
2014-Oct-15 08:34N 29°33' W 095°02'0 0.0
2014-Oct-15 07:31N 29°33' W 095°02'0 0.0
2014-Oct-15 06:28N 29°33' W 095°02'0 0.0
2014-Oct-15 05:28N 29°33' W 095°02'0 0.0
2014-Oct-15 04:28N 29°33' W 095°02'0 0.0
2014-Oct-15 03:28N 29°33' W 095°02'746688121.3
2014-Oct-15 03:23N 31°57' E 120°13'3 4.2
2014-Oct-15 02:33N 31°58' E 120°17'746239044.4
2014-Oct-15 02:22N 29°33' W 095°02'74608830.9
2014-Oct-15 01:31N 31°57' E 120°20'74601413412.9
2014-Oct-15 01:31N 29°33' W 095°02'74607495.0
2014-Oct-15 00:31N 31°57' E 120°20'746024502.4
2014-Oct-15 00:13N 29°33' W 095°02'0 0.0
2014-Oct-14 23:31N 29°33' W 095°02'0 0.0
2014-Oct-14 22:28N 29°33' W 095°02'136112502.9
2014-Oct-14 22:21N 41°37' W 071°24'13611527.3
2014-Oct-14 21:28N 29°33' W 095°02'0 0.0
2014-Oct-14 20:16N 29°33' W 095°02'0 0.0
2014-Oct-14 19:28N 29°33' W 095°02'74457663.9
2014-Oct-14 18:29N 29°58' E 122°03'7445260199.6
2014-Oct-14 18:28N 29°33' W 095°02'742051368.7
2014-Oct-14 18:19N 31°30' E 121°26'4 5.5
2014-Oct-14 17:33N 31°27' E 121°29'6647867.0
2014-Oct-14 17:33N 31°57' E 120°20'7460208177.0
2014-Oct-14 17:31N 29°33' W 095°02'74597729.7
2014-Oct-14 16:33N 31°58' E 120°20'702249.9
2014-Oct-14 16:31N 31°25' E 121°32'74181907364.3
2014-Oct-14 16:31N 29°33' W 095°02'74177511.4
2014-Oct-14 15:31N 31°25' E 121°32'7417620997.7
2014-Oct-14 15:31N 29°33' W 095°02'7459109604.0
2014-Oct-14 15:27N 31°58' E 120°20'7078.4
2014-Oct-14 14:33N 31°24' E 121°31'705573.5
2014-Oct-14 14:33N 31°58' E 120°20'745956891.9
2014-Oct-14 14:25N 29°33' W 095°02'74208675.7
2014-Oct-14 13:33N 31°19' E 121°34'7420165916.5
2014-Oct-14 13:31N 29°33' W 095°02'7459107411.9
2014-Oct-14 13:27N 31°58' E 120°20'0 0.0
2014-Oct-14 12:32N 31°58' E 120°20'7459248638.7
2014-Oct-14 12:31N 29°33' W 095°02'74597681.2
2014-Oct-14 11:32N 31°58' E 120°20'7459260712.0
2014-Oct-14 11:31N 29°33' W 095°02'74597674.6
2014-Oct-14 10:32N 31°58' E 120°20'7459274013.2
2014-Oct-14 10:31N 29°33' W 095°02'743660698.7
2014-Oct-14 10:23N 32°02' E 120°45'2125.0
2014-Oct-14 09:32N 31°58' E 120°20'7459276835.1
2014-Oct-14 09:31N 29°33' W 095°02'0 0.0
2014-Oct-14 08:31N 29°33' W 095°02'745999825.2
2014-Oct-14 08:26N 31°58' E 120°20'0 0.0
2014-Oct-14 07:32N 31°58' E 120°20'7459295087.8
2014-Oct-14 07:31N 29°33' W 095°02'74597650.4
2014-Oct-14 06:32N 31°58' E 120°20'7459295087.8
2014-Oct-14 06:31N 29°33' W 095°02'74597648.2
2014-Oct-14 05:32N 31°58' E 120°20'7459305147.5
2014-Oct-14 05:31N 29°33' W 095°02'74597637.4
2014-Oct-14 04:32N 31°58' E 120°20'7459319678.3
2014-Oct-14 04:31N 29°33' W 095°02'74597637.4
2014-Oct-14 03:32N 31°58' E 120°20'7459327475.3
2014-Oct-14 03:31N 29°33' W 095°02'74597630.9
2014-Oct-14 02:32N 31°58' E 120°20'7459327475.3
2014-Oct-14 02:31N 29°33' W 095°02'74597630.9
2014-Oct-14 01:32N 31°58' E 120°20'745943451.4
2014-Oct-14 01:22N 29°33' W 095°02'74599002.0
2014-Oct-14 00:32N 31°58' E 120°20'7459348740.0
2014-Oct-14 00:31N 29°33' W 095°02'74597615.7
2014-Oct-13 23:32N 31°58' E 120°20'745943663.4
2014-Oct-13 23:22N 29°33' W 095°02'0 0.0
2014-Oct-13 22:31N 29°33' W 095°02'7459253330.2
2014-Oct-13 22:29N 31°58' E 120°20'0 0.0
2014-Oct-13 21:32N 31°58' E 120°20'7459413122.7
2014-Oct-13 21:31N 29°33' W 095°02'74597579.2
2014-Oct-13 20:32N 31°58' E 120°20'7459113783.8
2014-Oct-13 20:28N 29°33' W 095°02'74597965.9
2014-Oct-13 19:32N 31°58' E 120°20'7459116752.2
2014-Oct-13 19:28N 29°33' W 095°02'731327169.9
2014-Oct-13 19:12N 38°56' E 117°58'434646.7
2014-Oct-13 18:31N 31°58' E 120°20'7459125481.3
2014-Oct-13 18:28N 29°33' W 095°02'742125964.4
2014-Oct-13 18:11N 31°17' E 121°34'3 5.1
2014-Oct-13 17:32N 31°20' E 121°33'7313853.0
2014-Oct-13 17:31N 31°58' E 120°20'7459994554.7
2014-Oct-13 17:31N 29°33' W 095°02'74217739.5
2014-Oct-13 16:33N 31°22' E 121°30'691996.2
2014-Oct-13 16:31N 31°58' E 120°20'74591167521.3
2014-Oct-13 16:31N 29°33' W 095°02'731316558.3
2014-Oct-13 16:04N 38°56' E 117°58'483909.3
2014-Oct-13 15:32N 31°25' E 121°30'68962.2
2014-Oct-13 15:28N 31°58' E 120°20'74591491833.5
2014-Oct-13 15:28N 29°33' W 095°02'74217904.5
2014-Oct-13 14:32N 31°29' E 121°25'628630.1
2014-Oct-13 14:31N 31°58' E 120°20'74591790197.5
2014-Oct-13 14:31N 29°33' W 095°02'74597488.3
2014-Oct-13 13:31N 31°58' E 120°20'0 0.0
2014-Oct-13 12:31N 31°58' E 120°20'48179.3
2014-Oct-13 12:15N 31°39' E 121°12'22118.9
2014-Oct-13 12:04N 31°22' E 121°29'69126.1
2014-Oct-13 11:31N 31°58' E 120°20'441011.0
2014-Oct-13 11:28N 31°42' E 121°08'4445.5
2014-Oct-13 10:31N 31°58' E 120°20'9231107197.8
2014-Oct-13 10:26N 41°37' W 071°24'9280393025.4
2014-Oct-13 10:24N 31°47' E 121°06'4145.6
2014-Oct-13 09:31N 31°58' E 120°20'74593730.7
2014-Oct-13 07:31N 29°33' W 095°02'74592983658.1
2014-Oct-13 07:31N 31°58' E 120°20'74597473.7
2014-Oct-13 06:31N 29°33' W 095°02'74592983661.1
2014-Oct-13 06:31N 31°58' E 120°20'74597475.8
2014-Oct-13 05:31N 29°33' W 095°02'74592685293.6
2014-Oct-13 05:31N 31°58' E 120°20'0 0.0
2014-Oct-13 04:31N 31°58' E 120°20'7459160796.2
2014-Oct-13 04:28N 29°33' W 095°02'0 0.0
2014-Oct-13 03:31N 29°33' W 095°02'74591678310.2
2014-Oct-13 03:31N 31°58' E 120°20'  

Dump ship's entire track history